METAR Data
IDs: Format: Raw Decoded Include TAF

Data at: 1152 UTC 23 Sep 2018

KGLR 220453Z AUTO VRB04KT 10SM FEW028 08/04 A3023 RMK AO2 SLP239 T00780039 402170078
KGLR 220420Z AUTO 33007KT 300V010 10SM BKN030 08/04 A3021 RMK AO2 T00830039
KGLR 220353Z AUTO 34008G20KT 290V090 10SM OVC029 08/04 A3020 RMK AO2 SLP230 T00830044
KGLR 220339Z AUTO 10SM BKN027 OVC034 09/04 A3020 RMK AO2 T00890044
KGLR 220323Z AUTO 35006G16KT 10SM OVC031 09/05 A3019 RMK AO2 T00890050
KGLR 220253Z AUTO VRB05KT 10SM FEW014 BKN022 OVC029 08/07 A3016 RMK AO2 RAB23E45 SLP215 P0000 60000 T00830072 53032
KGLR 220153Z AUTO 31010G19KT 280V350 10SM OVC024 09/06 A3011 RMK AO2 PK WND 35026/0126 RAB08E17 SLP198 P0000 T00940056
KGLR 220128Z AUTO 30008G26KT 10SM BKN024 OVC029 09/06 A3010 RMK AO2 PK WND 35026/0126 RAB08E17 P0000 T00940061
KGLR 220053Z AUTO 29008G26KT 10SM FEW023 BKN031 OVC037 09/06 A3006 RMK AO2 PK WND 30028/2356 RAB06E15 SLP180 P0000 T00940056
KGLR 220048Z AUTO 31009G26KT 270V350 10SM SCT023 BKN031 OVC037 09/06 A3006 RMK AO2 PK WND 30028/2356 RAB06E15 PRESRR P0000
KGLR 220003Z AUTO 30010G28KT 10SM BKN026 OVC033 10/06 A3002 RMK AO2 PK WND 30028/2356 T01000061
KGLR 212353Z AUTO 31011G24KT 280V340 10SM SCT028 BKN034 10/06 A3001 RMK AO2 PK WND 29029/2323 SLP162 60000 T01000056 10211 20100 51064